Time;durP1;ratioP1;P1;durP2;ratioP2;P2;SDS_P1;SDS_P2;PMS_P1;PMS_P2;Temp;Humidity;BMP_temperature;BMP_pressure;BME280_temperature;BME280_humidity;BME280_pressure;Samples;Min_cycle;Max_cycle;Signal;HPM_P1;HPM_P2
2023/08/22 00:02:19;;;;;;;8.40;2.70;;;;;;;;;;4993466;28;99022;-79
2023/08/22 00:04:45;;;;;;;5.50;2.45;;;;;;;;;;4992750;28;99148;-79
2023/08/22 00:07:12;;;;;;;4.85;2.20;;;;;;;;;;4995217;28;97942;-78
2023/08/22 00:09:39;;;;;;;5.55;2.00;;;;;;;;;;4997835;28;98534;-78
2023/08/22 00:12:05;;;;;;;2.75;1.92;;;;;;;;;;4995416;28;99323;-78
2023/08/22 00:14:32;;;;;;;4.25;2.35;;;;;;;;;;4988996;28;99233;-77
2023/08/22 00:16:58;;;;;;;14.75;2.45;;;;;;;;;;4991526;28;99909;-76
2023/08/22 00:19:25;;;;;;;6.30;2.60;;;;;;;;;;4986567;28;99564;-76
2023/08/22 00:21:55;;;;;;;10.45;2.58;;;;;;;;;;4991104;28;98521;-79
2023/08/22 00:24:22;;;;;;;6.25;2.28;;;;;;;;;;5002236;28;99249;-78
2023/08/22 00:26:50;;;;;;;4.20;2.17;;;;;;;;;;5000687;28;99686;-79
2023/08/22 00:29:16;;;;;;;5.68;1.92;;;;;;;;;;4988804;28;98678;-79
2023/08/22 00:31:42;;;;;;;8.32;2.17;;;;;;;;;;4988388;28;99119;-79
2023/08/22 00:34:09;;;;;;;5.70;2.28;;;;;;;;;;4990394;28;99543;-79
2023/08/22 00:36:37;;;;;;;4.85;2.10;;;;;;;;;;4986203;28;99230;-79
2023/08/22 00:39:04;;;;;;;10.60;2.38;;;;;;;;;;4986951;28;100626;-80
2023/08/22 00:41:30;;;;;;;4.05;2.10;;;;;;;;;;4991920;28;98632;-80
2023/08/22 00:43:56;;;;;;;5.63;2.28;;;;;;;;;;4984574;28;99141;-80
2023/08/22 00:46:25;;;;;;;10.32;2.38;;;;;;;;;;4985899;28;99649;-78
2023/08/22 00:48:51;;;;;;;4.90;1.92;;;;;;;;;;4983603;28;98586;-77
2023/08/22 00:51:18;;;;;;;6.07;2.05;;;;;;;;;;4990469;28;99111;-78
2023/08/22 00:53:45;;;;;;;5.20;2.20;;;;;;;;;;4995737;28;99804;-78
2023/08/22 00:56:11;;;;;;;8.52;1.95;;;;;;;;;;4992458;28;97873;-78
2023/08/22 00:58:38;;;;;;;6.63;2.13;;;;;;;;;;4978849;28;99518;-79
2023/08/22 01:01:04;;;;;;;5.30;2.10;;;;;;;;;;5000857;28;98466;-79
2023/08/22 01:03:31;;;;;;;4.65;2.15;;;;;;;;;;4991043;28;100092;-81
2023/08/22 01:06:00;;;;;;;8.55;2.40;;;;;;;;;;4990276;28;99846;-79
2023/08/22 01:08:30;;;;;;;5.20;2.35;;;;;;;;;;4991226;28;98498;-79
2023/08/22 01:10:58;;;;;;;8.15;2.28;;;;;;;;;;4991533;28;99221;-80
2023/08/22 01:13:27;;;;;;;6.05;2.50;;;;;;;;;;5000846;28;99501;-80
2023/08/22 01:15:54;;;;;;;6.05;2.00;;;;;;;;;;5005815;28;98512;-80
2023/08/22 01:18:21;;;;;;;5.13;2.47;;;;;;;;;;4998691;28;99497;-77
2023/08/22 01:20:47;;;;;;;7.22;2.40;;;;;;;;;;4989231;28;97906;-76
2023/08/22 01:23:14;;;;;;;5.85;2.20;;;;;;;;;;5004071;28;98630;-78
2023/08/22 01:25:40;;;;;;;2.38;1.90;;;;;;;;;;4995760;28;101003;-76
2023/08/22 01:28:13;;;;;;;10.50;2.50;;;;;;;;;;5003777;28;99178;-76
2023/08/22 01:30:55;;;;;;;7.50;2.78;;;;;;;;;;4990276;28;100776;-76
2023/08/22 01:33:32;;;;;;;7.93;2.75;;;;;;;;;;4993515;28;99557;-76
2023/08/22 01:35:59;;;;;;;8.70;2.78;;;;;;;;;;4995001;28;100083;-77
2023/08/22 01:38:27;;;;;;;5.47;2.95;;;;;;;;;;4997893;28;99152;-76
2023/08/22 01:40:54;;;;;;;3.47;2.60;;;;;;;;;;5000627;28;98539;-77
2023/08/22 01:43:21;;;;;;;3.95;2.42;;;;;;;;;;4991204;28;99256;-76
2023/08/22 01:45:47;;;;;;;12.27;3.10;;;;;;;;;;4987774;28;98693;-76
2023/08/22 01:48:14;;;;;;;7.90;3.10;;;;;;;;;;4997304;28;100250;-76
2023/08/22 01:50:40;;;;;;;5.38;2.60;;;;;;;;;;4986351;28;99139;-75
2023/08/22 01:53:07;;;;;;;7.78;2.72;;;;;;;;;;4986740;28;100564;-75
2023/08/22 01:55:33;;;;;;;7.22;3.20;;;;;;;;;;4986078;28;99655;-76
2023/08/22 01:58:00;;;;;;;4.93;2.60;;;;;;;;;;4985284;28;99147;-76
2023/08/22 02:00:26;;;;;;;13.82;2.78;;;;;;;;;;4983850;28;99508;-75
2023/08/22 02:02:53;;;;;;;5.43;2.88;;;;;;;;;;4991080;28;99187;-75
2023/08/22 02:05:19;;;;;;;4.55;2.58;;;;;;;;;;4992302;28;100014;-76
2023/08/22 02:07:45;;;;;;;4.18;2.60;;;;;;;;;;4997165;28;98593;-75
2023/08/22 02:10:12;;;;;;;5.60;2.75;;;;;;;;;;4995220;28;99413;-77
2023/08/22 02:12:38;;;;;;;7.18;2.70;;;;;;;;;;4998808;28;100755;-76
2023/08/22 02:15:06;;;;;;;3.58;2.75;;;;;;;;;;5003670;28;99106;-75
2023/08/22 02:17:32;;;;;;;4.25;2.80;;;;;;;;;;5001687;28;99224;-75
2023/08/22 02:19:59;;;;;;;4.60;2.80;;;;;;;;;;4991767;28;99499;-76
2023/08/22 02:22:25;;;;;;;6.32;2.58;;;;;;;;;;4994852;28;98489;-77
2023/08/22 02:24:52;;;;;;;6.40;3.00;;;;;;;;;;4995479;28;99500;-78
2023/08/22 02:27:18;;;;;;;6.35;2.95;;;;;;;;;;4989785;28;98994;-78
2023/08/22 02:29:45;;;;;;;9.05;3.10;;;;;;;;;;4987193;28;99116;-78
2023/08/22 02:32:11;;;;;;;6.07;2.70;;;;;;;;;;4981813;28;99719;-78
2023/08/22 02:34:37;;;;;;;3.72;3.00;;;;;;;;;;4990093;28;97962;-78
2023/08/22 02:37:04;;;;;;;4.18;2.92;;;;;;;;;;4995298;28;99309;-78
2023/08/22 02:39:30;;;;;;;14.15;3.30;;;;;;;;;;4994008;28;100499;-78
2023/08/22 02:41:57;;;;;;;7.78;2.53;;;;;;;;;;4988529;28;99975;-78
2023/08/22 02:44:23;;;;;;;4.22;2.45;;;;;;;;;;4997348;28;100169;-78
2023/08/22 02:46:50;;;;;;;5.25;2.50;;;;;;;;;;4992595;28;99970;-78
2023/08/22 02:49:16;;;;;;;4.93;3.03;;;;;;;;;;4991314;28;99505;-79
2023/08/22 02:51:42;;;;;;;9.15;3.05;;;;;;;;;;5000573;28;100412;-78
2023/08/22 02:54:09;;;;;;;6.22;2.75;;;;;;;;;;4997948;28;98628;-78
2023/08/22 02:56:35;;;;;;;6.22;2.72;;;;;;;;;;4989390;28;100311;-79
2023/08/22 02:59:03;;;;;;;5.07;2.70;;;;;;;;;;4997775;28;101926;-77
2023/08/22 03:01:29;;;;;;;7.13;2.80;;;;;;;;;;4993073;28;98613;-80
2023/08/22 03:03:56;;;;;;;5.32;2.33;;;;;;;;;;4996623;28;100221;-80
2023/08/22 03:06:22;;;;;;;5.65;2.60;;;;;;;;;;4993141;28;99440;-78
2023/08/22 03:08:49;;;;;;;4.57;2.95;;;;;;;;;;4993287;28;99985;-79
2023/08/22 03:11:16;;;;;;;4.88;2.42;;;;;;;;;;4994063;28;100512;-79
2023/08/22 03:13:43;;;;;;;4.75;2.47;;;;;;;;;;4989860;28;98588;-78
2023/08/22 03:16:09;;;;;;;6.07;2.72;;;;;;;;;;4996022;28;99571;-80
2023/08/22 03:18:36;;;;;;;5.68;2.55;;;;;;;;;;4990653;28;103286;-77
2023/08/22 03:21:02;;;;;;;2.90;2.25;;;;;;;;;;4991304;28;98537;-78
2023/08/22 03:23:29;;;;;;;4.25;2.50;;;;;;;;;;4994158;28;99112;-78
2023/08/22 03:25:56;;;;;;;11.77;2.40;;;;;;;;;;4988632;28;99844;-78
2023/08/22 03:28:23;;;;;;;7.22;2.10;;;;;;;;;;5001241;28;99152;-78
2023/08/22 03:30:53;;;;;;;7.82;2.20;;;;;;;;;;4992043;28;101299;-76
2023/08/22 03:33:20;;;;;;;14.25;2.10;;;;;;;;;;4992867;28;98534;-76
2023/08/22 03:35:46;;;;;;;7.28;2.78;;;;;;;;;;4996570;28;99008;-77
2023/08/22 03:38:12;;;;;;;5.35;2.03;;;;;;;;;;4991753;28;100573;-77
2023/08/22 03:40:39;;;;;;;4.68;1.70;;;;;;;;;;4983787;28;98700;-78
2023/08/22 03:43:06;;;;;;;2.40;1.80;;;;;;;;;;4986145;28;99740;-78
2023/08/22 03:45:32;;;;;;;3.05;1.73;;;;;;;;;;4987361;28;99541;-77
2023/08/22 03:48:03;;;;;;;2.30;1.95;;;;;;;;;;4996580;28;97983;-77
2023/08/22 03:50:30;;;;;;;7.45;2.47;;;;;;;;;;4988924;28;100291;-78
2023/08/22 03:52:56;;;;;;;5.60;2.33;;;;;;;;;;4986788;28;98618;-78
2023/08/22 03:55:23;;;;;;;2.20;1.83;;;;;;;;;;4989979;28;100195;-76
2023/08/22 03:57:50;;;;;;;1.83;1.70;;;;;;;;;;4990671;28;100563;-78
2023/08/22 04:00:16;;;;;;;4.03;2.15;;;;;;;;;;4983685;28;98693;-77
2023/08/22 04:02:43;;;;;;;15.57;2.22;;;;;;;;;;4991961;28;99122;-78
2023/08/22 04:05:09;;;;;;;7.63;2.20;;;;;;;;;;4987246;28;99739;-76
2023/08/22 04:07:35;;;;;;;5.53;2.20;;;;;;;;;;4997295;28;98525;-80
2023/08/22 04:10:02;;;;;;;2.20;1.90;;;;;;;;;;4989384;28;101909;-80
2023/08/22 04:12:29;;;;;;;9.35;1.85;;;;;;;;;;4994146;28;97775;-83
2023/08/22 04:14:55;;;;;;;4.25;2.38;;;;;;;;;;4991426;28;98577;-79
2023/08/22 04:17:21;;;;;;;8.13;2.40;;;;;;;;;;4988663;28;99506;-79
2023/08/22 04:19:48;;;;;;;4.30;2.10;;;;;;;;;;5002333;28;100019;-83
2023/08/22 04:22:14;;;;;;;8.75;2.35;;;;;;;;;;4996703;28;99936;-83
2023/08/22 04:24:41;;;;;;;8.25;2.33;;;;;;;;;;4989429;28;99584;-83
2023/08/22 04:27:07;;;;;;;7.38;2.33;;;;;;;;;;4988222;28;98830;-82
2023/08/22 04:29:34;;;;;;;5.93;2.92;;;;;;;;;;4987990;28;99683;-83
2023/08/22 04:32:03;;;;;;;4.60;2.35;;;;;;;;;;4997656;27;99478;-83
2023/08/22 04:34:30;;;;;;;7.68;2.70;;;;;;;;;;4999683;27;99167;-82
2023/08/22 04:36:56;;;;;;;4.63;2.60;;;;;;;;;;4997736;28;103357;-79
2023/08/22 04:39:22;;;;;;;5.28;3.00;;;;;;;;;;4996997;28;98917;-79
2023/08/22 04:41:50;;;;;;;6.28;3.25;;;;;;;;;;4995519;28;99223;-79
2023/08/22 04:44:16;;;;;;;5.25;3.13;;;;;;;;;;4988986;28;100549;-87
2023/08/22 04:46:43;;;;;;;7.38;2.65;;;;;;;;;;5004190;28;98652;-82
2023/08/22 04:49:09;;;;;;;4.25;2.53;;;;;;;;;;4992131;28;99209;-81
2023/08/22 04:51:35;;;;;;;10.30;2.47;;;;;;;;;;4995470;28;99652;-80
2023/08/22 04:54:02;;;;;;;5.72;2.60;;;;;;;;;;5008314;28;98556;-77
2023/08/22 04:56:29;;;;;;;2.70;2.35;;;;;;;;;;5002228;28;99542;-83
2023/08/22 04:58:55;;;;;;;6.75;2.67;;;;;;;;;;4986211;28;98631;-80
2023/08/22 05:01:21;;;;;;;6.20;2.88;;;;;;;;;;4993617;28;100274;-81
2023/08/22 05:03:48;;;;;;;6.57;2.60;;;;;;;;;;4988478;28;99477;-79
2023/08/22 05:06:14;;;;;;;6.05;2.58;;;;;;;;;;5003377;28;98681;-82
2023/08/22 05:08:40;;;;;;;5.95;3.10;;;;;;;;;;4995596;28;100116;-83
2023/08/22 05:11:07;;;;;;;5.50;3.15;;;;;;;;;;5001464;28;99565;-80
2023/08/22 05:13:33;;;;;;;7.22;2.70;;;;;;;;;;5004012;28;98494;-82
2023/08/22 05:16:00;;;;;;;7.47;2.85;;;;;;;;;;5000971;28;99371;-82
2023/08/22 05:18:26;;;;;;;15.13;2.88;;;;;;;;;;4991906;28;100129;-77
2023/08/22 05:20:53;;;;;;;3.92;2.40;;;;;;;;;;4996232;28;99271;-77
2023/08/22 05:23:19;;;;;;;6.35;3.03;;;;;;;;;;5003449;28;99478;-76
2023/08/22 05:25:46;;;;;;;4.90;3.13;;;;;;;;;;5004369;28;97822;-76
2023/08/22 05:28:12;;;;;;;6.20;3.03;;;;;;;;;;5002919;28;98734;-77
2023/08/22 05:30:39;;;;;;;7.97;3.28;;;;;;;;;;4985183;28;103871;-75
2023/08/22 05:33:06;;;;;;;4.50;3.03;;;;;;;;;;5002063;28;99354;-77
2023/08/22 05:35:32;;;;;;;6.35;2.97;;;;;;;;;;4992022;28;100102;-77
2023/08/22 05:37:59;;;;;;;9.88;4.18;;;;;;;;;;4988605;28;98579;-77
2023/08/22 05:40:28;;;;;;;12.50;5.45;;;;;;;;;;4990422;28;100768;-78
2023/08/22 05:42:55;;;;;;;17.67;7.88;;;;;;;;;;5001686;28;99794;-76
2023/08/22 05:45:21;;;;;;;15.23;8.40;;;;;;;;;;4988761;28;99015;-78
2023/08/22 05:47:48;;;;;;;26.02;9.23;;;;;;;;;;4986384;28;99134;-77
2023/08/22 05:50:14;;;;;;;15.07;8.75;;;;;;;;;;4993319;28;99053;-76
2023/08/22 05:52:41;;;;;;;16.63;8.68;;;;;;;;;;4983554;28;98777;-77
2023/08/22 05:55:07;;;;;;;24.58;8.25;;;;;;;;;;4994786;28;99622;-76
2023/08/22 05:57:34;;;;;;;14.05;8.73;;;;;;;;;;4992639;28;100314;-79
2023/08/22 06:00:00;;;;;;;16.10;8.25;;;;;;;;;;4988636;28;100074;-79
2023/08/22 06:02:27;;;;;;;16.38;7.72;;;;;;;;;;4990575;28;99247;-79
2023/08/22 06:04:53;;;;;;;10.85;6.43;;;;;;;;;;4999942;28;98517;-80
2023/08/22 06:07:20;;;;;;;15.73;6.65;;;;;;;;;;4991138;28;99751;-80
2023/08/22 06:09:46;;;;;;;12.60;6.30;;;;;;;;;;4992628;28;99638;-80
2023/08/22 06:12:12;;;;;;;17.23;6.88;;;;;;;;;;4995243;28;99036;-80
2023/08/22 06:14:39;;;;;;;12.73;7.43;;;;;;;;;;5002020;28;99198;-80
2023/08/22 06:17:05;;;;;;;10.27;7.07;;;;;;;;;;5002677;28;99605;-80
2023/08/22 06:19:32;;;;;;;16.52;7.70;;;;;;;;;;4998405;28;98605;-80
2023/08/22 06:21:58;;;;;;;12.85;7.88;;;;;;;;;;4997511;28;100194;-80
2023/08/22 06:24:25;;;;;;;13.02;7.13;;;;;;;;;;4990846;28;98499;-80
2023/08/22 06:26:51;;;;;;;12.60;7.40;;;;;;;;;;4992858;28;99203;-79
2023/08/22 06:29:17;;;;;;;17.27;7.55;;;;;;;;;;4984570;28;100268;-80
2023/08/22 06:31:44;;;;;;;13.02;6.75;;;;;;;;;;4985845;28;100071;-79
2023/08/22 06:34:10;;;;;;;12.05;7.40;;;;;;;;;;4990837;28;99248;-80
2023/08/22 06:36:37;;;;;;;16.40;7.15;;;;;;;;;;4993112;28;101427;-80
2023/08/22 06:39:05;;;;;;;15.75;7.47;;;;;;;;;;5001245;28;98744;-80
2023/08/22 06:41:31;;;;;;;16.17;6.90;;;;;;;;;;4996040;28;98477;-80
2023/08/22 06:43:58;;;;;;;14.95;6.18;;;;;;;;;;4989748;28;98592;-80
2023/08/22 06:46:27;;;;;;;13.07;6.60;;;;;;;;;;4987483;28;101442;-80
2023/08/22 06:48:53;;;;;;;13.73;5.55;;;;;;;;;;4983411;28;99873;-80
2023/08/22 06:51:20;;;;;;;10.95;5.97;;;;;;;;;;4980897;28;98803;-77
2023/08/22 06:53:47;;;;;;;11.80;5.68;;;;;;;;;;4988052;28;99207;-77
2023/08/22 06:56:13;;;;;;;15.05;5.95;;;;;;;;;;4988305;28;99156;-77
2023/08/22 06:58:40;;;;;;;12.25;5.28;;;;;;;;;;4990890;28;100910;-77
2023/08/22 07:01:07;;;;;;;16.50;5.18;;;;;;;;;;4993430;28;99176;-77
2023/08/22 07:03:34;;;;;;;9.90;5.03;;;;;;;;;;4988393;28;98697;-79
2023/08/22 07:06:01;;;;;;;10.52;4.65;;;;;;;;;;4997385;28;98720;-80
2023/08/22 07:08:27;;;;;;;12.00;4.80;;;;;;;;;;4998879;28;99507;-79
2023/08/22 07:10:59;;;;;;;8.63;4.32;;;;;;;;;;4989118;28;99302;-80
2023/08/22 07:13:25;;;;;;;7.75;4.40;;;;;;;;;;4986709;28;98896;-79
2023/08/22 07:15:51;;;;;;;11.15;4.22;;;;;;;;;;4985340;28;99830;-80
2023/08/22 07:18:18;;;;;;;12.00;3.83;;;;;;;;;;4990872;28;99339;-80
2023/08/22 07:20:46;;;;;;;12.93;3.72;;;;;;;;;;4987387;28;99234;-79
2023/08/22 07:23:13;;;;;;;7.45;3.28;;;;;;;;;;5001941;28;100811;-80
2023/08/22 07:25:40;;;;;;;6.97;3.00;;;;;;;;;;4994749;28;99162;-80
2023/08/22 07:28:08;;;;;;;7.28;3.45;;;;;;;;;;4985788;28;99518;-76
2023/08/22 07:30:34;;;;;;;10.07;3.05;;;;;;;;;;4982283;28;98740;-80
2023/08/22 07:33:00;;;;;;;17.33;3.38;;;;;;;;;;4989999;28;98792;-79
2023/08/22 07:35:29;;;;;;;7.85;2.97;;;;;;;;;;4993389;28;100930;-79
2023/08/22 07:37:56;;;;;;;9.15;3.00;;;;;;;;;;4994588;28;98523;-79
2023/08/22 07:40:23;;;;;;;6.55;2.88;;;;;;;;;;4991137;28;99281;-79
2023/08/22 07:42:49;;;;;;;8.65;3.03;;;;;;;;;;4990301;28;99873;-79
2023/08/22 07:45:16;;;;;;;10.20;3.17;;;;;;;;;;4995712;28;98594;-79
2023/08/22 07:47:42;;;;;;;11.32;3.15;;;;;;;;;;4991124;28;99485;-80
2023/08/22 07:50:09;;;;;;;3.63;2.47;;;;;;;;;;4996112;28;98628;-81
2023/08/22 07:52:35;;;;;;;17.70;3.53;;;;;;;;;;4996090;28;99455;-80
2023/08/22 07:55:02;;;;;;;7.78;3.35;;;;;;;;;;4983105;28;98623;-79
2023/08/22 07:57:29;;;;;;;9.63;3.63;;;;;;;;;;4992020;28;98535;-78
2023/08/22 07:59:56;;;;;;;9.15;3.90;;;;;;;;;;4987657;28;101634;-79
2023/08/22 08:02:22;;;;;;;8.68;4.22;;;;;;;;;;4987518;28;101049;-79
2023/08/22 08:04:49;;;;;;;14.88;3.60;;;;;;;;;;4994956;28;98654;-79
2023/08/22 08:07:16;;;;;;;6.93;3.10;;;;;;;;;;4992865;28;99283;-79
2023/08/22 08:09:42;;;;;;;15.18;4.30;;;;;;;;;;4984216;28;98711;-79
2023/08/22 08:12:09;;;;;;;9.70;3.75;;;;;;;;;;4987499;28;99558;-79
2023/08/22 08:14:35;;;;;;;6.90;3.50;;;;;;;;;;4989281;28;99471;-79
2023/08/22 08:17:02;;;;;;;9.63;3.35;;;;;;;;;;4989915;28;97850;-79
2023/08/22 08:19:28;;;;;;;9.93;3.55;;;;;;;;;;4992016;28;98482;-79
2023/08/22 08:21:55;;;;;;;11.55;3.47;;;;;;;;;;4992529;28;99605;-79
2023/08/22 08:24:21;;;;;;;7.97;3.42;;;;;;;;;;4989027;28;99444;-79
2023/08/22 08:26:48;;;;;;;11.20;3.47;;;;;;;;;;4992655;28;99908;-79
2023/08/22 08:29:14;;;;;;;5.90;2.80;;;;;;;;;;4999516;28;99555;-79
2023/08/22 08:31:41;;;;;;;15.70;3.40;;;;;;;;;;5001401;28;99210;-79
2023/08/22 08:34:07;;;;;;;13.50;3.95;;;;;;;;;;4988941;28;99563;-79
2023/08/22 08:36:33;;;;;;;7.13;2.72;;;;;;;;;;4993084;28;98625;-78
2023/08/22 08:39:00;;;;;;;8.98;2.90;;;;;;;;;;4991478;28;98802;-78
2023/08/22 08:41:28;;;;;;;13.35;3.30;;;;;;;;;;4993358;28;99137;-79
2023/08/22 08:43:56;;;;;;;8.80;2.97;;;;;;;;;;4996018;28;98580;-79
2023/08/22 08:46:25;;;;;;;6.30;2.70;;;;;;;;;;4996693;28;99155;-78
2023/08/22 08:48:53;;;;;;;11.93;2.95;;;;;;;;;;4991597;28;100265;-76
2023/08/22 08:51:20;;;;;;;8.00;2.70;;;;;;;;;;5002715;28;99446;-76
2023/08/22 08:53:48;;;;;;;7.90;2.78;;;;;;;;;;4998972;28;99683;-77
2023/08/22 08:56:15;;;;;;;10.00;2.60;;;;;;;;;;4991743;28;98511;-77
2023/08/22 08:58:42;;;;;;;7.55;2.90;;;;;;;;;;5002326;28;99348;-76
2023/08/22 09:01:10;;;;;;;7.30;2.53;;;;;;;;;;4994439;28;99909;-77
2023/08/22 09:03:36;;;;;;;11.85;3.22;;;;;;;;;;4999345;28;98822;-77
2023/08/22 09:06:03;;;;;;;8.32;2.88;;;;;;;;;;4990607;28;99181;-77
2023/08/22 09:08:29;;;;;;;7.18;3.20;;;;;;;;;;4990554;28;100003;-77
2023/08/22 09:10:55;;;;;;;9.20;2.40;;;;;;;;;;4993068;28;98679;-76
2023/08/22 09:13:25;;;;;;;9.30;2.42;;;;;;;;;;4996496;28;99439;-77
2023/08/22 09:16:07;;;;;;;6.00;2.22;;;;;;;;;;4989278;28;98678;-77
2023/08/22 09:18:40;;;;;;;5.60;2.30;;;;;;;;;;4999238;28;99596;-77
2023/08/22 09:21:07;;;;;;;8.07;3.10;;;;;;;;;;4995184;28;101221;-77
2023/08/22 09:23:34;;;;;;;6.38;2.92;;;;;;;;;;4992580;28;98763;-76
2023/08/22 09:26:02;;;;;;;5.55;2.63;;;;;;;;;;5000121;28;100256;-76
2023/08/22 09:28:29;;;;;;;13.02;3.60;;;;;;;;;;4987150;28;99932;-77
2023/08/22 09:30:58;;;;;;;8.77;2.70;;;;;;;;;;4991352;28;97887;-76
2023/08/22 09:33:25;;;;;;;8.55;2.38;;;;;;;;;;4997362;28;100803;-77
2023/08/22 09:35:54;;;;;;;6.13;1.98;;;;;;;;;;4997420;28;98464;-77
2023/08/22 09:38:21;;;;;;;4.82;1.88;;;;;;;;;;4994661;28;99470;-77
2023/08/22 09:40:51;;;;;;;6.13;2.10;;;;;;;;;;4997249;28;99480;-76
2023/08/22 09:43:19;;;;;;;6.30;2.15;;;;;;;;;;4995007;28;99396;-77
2023/08/22 09:45:47;;;;;;;5.55;2.83;;;;;;;;;;4997442;28;99291;-77
2023/08/22 09:48:24;;;;;;;8.15;2.60;;;;;;;;;;4997142;28;99527;-77
2023/08/22 09:50:55;;;;;;;7.35;2.83;;;;;;;;;;4994926;28;98517;-77
2023/08/22 09:53:21;;;;;;;4.15;1.90;;;;;;;;;;4988511;28;99108;-76
2023/08/22 09:55:50;;;;;;;10.15;2.10;;;;;;;;;;4998657;28;98740;-77
2023/08/22 09:58:17;;;;;;;8.70;1.58;;;;;;;;;;4990379;28;98427;-79
2023/08/22 10:00:44;;;;;;;5.10;1.77;;;;;;;;;;4997081;28;99833;-79
2023/08/22 10:03:11;;;;;;;7.25;1.92;;;;;;;;;;4996104;28;99330;-79
2023/08/22 10:05:39;;;;;;;5.78;1.70;;;;;;;;;;4993890;28;99890;-79
2023/08/22 10:08:05;;;;;;;4.93;1.65;;;;;;;;;;4990947;28;99089;-79
2023/08/22 10:10:32;;;;;;;5.78;1.40;;;;;;;;;;4991040;28;98994;-79
2023/08/22 10:13:01;;;;;;;7.28;2.22;;;;;;;;;;4984936;28;99463;-79
2023/08/22 10:15:28;;;;;;;4.20;1.80;;;;;;;;;;4990245;28;99703;-79
2023/08/22 10:17:55;;;;;;;3.63;1.48;;;;;;;;;;4993221;28;98565;-78
2023/08/22 10:20:21;;;;;;;5.65;1.75;;;;;;;;;;4994030;28;98860;-78
2023/08/22 10:22:51;;;;;;;3.50;1.70;;;;;;;;;;4990631;28;98657;-79
2023/08/22 10:25:17;;;;;;;4.57;1.50;;;;;;;;;;4992101;28;99280;-79
2023/08/22 10:27:48;;;;;;;5.53;1.65;;;;;;;;;;4989229;28;101851;-79
2023/08/22 10:30:14;;;;;;;6.05;1.50;;;;;;;;;;4989531;28;98631;-79
2023/08/22 10:32:41;;;;;;;5.22;1.60;;;;;;;;;;4995093;28;99224;-79
2023/08/22 10:35:13;;;;;;;3.75;1.80;;;;;;;;;;4997147;28;99536;-79
2023/08/22 10:37:45;;;;;;;4.95;2.00;;;;;;;;;;4999960;28;98698;-79
2023/08/22 10:40:19;;;;;;;4.88;1.73;;;;;;;;;;4996816;28;99258;-79
2023/08/22 10:42:50;;;;;;;4.65;1.52;;;;;;;;;;4988588;28;98893;-79
2023/08/22 10:45:17;;;;;;;6.78;1.98;;;;;;;;;;4990239;28;99142;-79
2023/08/22 10:47:47;;;;;;;9.27;2.10;;;;;;;;;;4989562;28;99572;-79
2023/08/22 10:50:14;;;;;;;9.55;2.70;;;;;;;;;;4993797;28;98802;-79
2023/08/22 10:52:43;;;;;;;7.15;2.20;;;;;;;;;;4991348;28;99603;-79
2023/08/22 10:55:11;;;;;;;6.18;2.08;;;;;;;;;;5001270;28;101021;-79
2023/08/22 10:57:38;;;;;;;7.70;2.38;;;;;;;;;;4993399;28;98652;-79
2023/08/22 11:00:17;;;;;;;13.32;3.20;;;;;;;;;;4994151;28;99136;-79
2023/08/22 11:02:43;;;;;;;9.27;3.55;;;;;;;;;;4985618;28;99522;-79
2023/08/22 11:05:11;;;;;;;10.38;3.70;;;;;;;;;;5000720;28;99147;-79
2023/08/22 11:07:42;;;;;;;10.23;3.40;;;;;;;;;;4994251;28;99456;-77
2023/08/22 11:10:12;;;;;;;7.15;2.95;;;;;;;;;;4988078;28;97970;-79
2023/08/22 11:12:38;;;;;;;6.53;2.72;;;;;;;;;;4987822;28;98720;-79
2023/08/22 11:15:05;;;;;;;8.27;2.78;;;;;;;;;;4989354;28;100305;-79
2023/08/22 11:17:32;;;;;;;8.43;3.40;;;;;;;;;;4987553;28;99258;-80
2023/08/22 11:19:58;;;;;;;11.95;3.83;;;;;;;;;;4990015;28;101055;-79
2023/08/22 11:22:25;;;;;;;11.57;3.58;;;;;;;;;;4988160;28;100622;-80
2023/08/22 11:24:52;;;;;;;12.95;3.95;;;;;;;;;;5009719;28;102273;-80
2023/08/22 11:27:19;;;;;;;7.88;3.78;;;;;;;;;;4998251;28;99522;-79
2023/08/22 11:29:46;;;;;;;13.77;4.50;;;;;;;;;;4993427;28;98654;-79
2023/08/22 11:32:29;;;;;;;9.35;3.28;;;;;;;;;;4989396;28;102136;-79
2023/08/22 11:34:57;;;;;;;12.80;4.65;;;;;;;;;;4990008;28;99770;-79
2023/08/22 11:37:24;;;;;;;10.95;3.42;;;;;;;;;;4990120;28;98555;-79
2023/08/22 11:39:51;;;;;;;14.10;3.88;;;;;;;;;;4989197;28;99195;-78
2023/08/22 11:42:19;;;;;;;7.13;3.90;;;;;;;;;;4987882;28;100262;-79
2023/08/22 11:44:53;;;;;;;7.55;3.50;;;;;;;;;;4991239;28;98713;-79
2023/08/22 11:47:19;;;;;;;10.52;4.18;;;;;;;;;;4987902;28;102190;-79
2023/08/22 11:49:49;;;;;;;6.00;2.97;;;;;;;;;;4988026;28;98851;-78
2023/08/22 11:52:16;;;;;;;10.50;3.47;;;;;;;;;;4992646;28;99768;-79
2023/08/22 11:54:44;;;;;;;12.38;4.18;;;;;;;;;;4992691;28;99489;-79
2023/08/22 11:57:14;;;;;;;8.32;3.20;;;;;;;;;;4987604;28;98500;-79
2023/08/22 11:59:42;;;;;;;10.13;2.97;;;;;;;;;;4991251;28;99192;-79
2023/08/22 12:02:11;;;;;;;6.20;2.70;;;;;;;;;;4992858;28;99236;-79
2023/08/22 12:04:43;;;;;;;11.40;2.70;;;;;;;;;;4993460;28;98903;-79
2023/08/22 12:07:10;;;;;;;9.52;2.92;;;;;;;;;;4995362;28;99323;-78
2023/08/22 12:09:37;;;;;;;10.20;3.75;;;;;;;;;;4989216;28;98525;-79
2023/08/22 12:12:10;;;;;;;12.57;4.55;;;;;;;;;;4997598;28;99268;-80
2023/08/22 12:14:36;;;;;;;10.80;4.07;;;;;;;;;;4989473;28;99482;-78
2023/08/22 12:17:02;;;;;;;6.85;3.30;;;;;;;;;;4993005;28;99055;-78
2023/08/22 12:19:29;;;;;;;9.77;3.45;;;;;;;;;;4994691;28;99284;-78
2023/08/22 12:21:57;;;;;;;7.28;2.80;;;;;;;;;;4991187;28;99641;-79
2023/08/22 12:24:23;;;;;;;10.88;2.78;;;;;;;;;;4995584;28;97767;-79
2023/08/22 12:26:49;;;;;;;7.50;3.00;;;;;;;;;;4989353;28;98648;-79
2023/08/22 12:29:16;;;;;;;9.98;2.80;;;;;;;;;;4990999;28;99754;-79
2023/08/22 12:31:42;;;;;;;8.35;2.75;;;;;;;;;;4996145;28;99327;-79
2023/08/22 12:34:09;;;;;;;10.32;2.53;;;;;;;;;;4996942;28;99228;-79
2023/08/22 12:36:35;;;;;;;11.02;2.80;;;;;;;;;;4986099;28;98495;-79
2023/08/22 12:39:01;;;;;;;6.28;2.40;;;;;;;;;;4985871;28;99292;-78
2023/08/22 12:41:28;;;;;;;5.55;2.28;;;;;;;;;;4988120;28;99496;-79
2023/08/22 12:43:54;;;;;;;4.82;2.20;;;;;;;;;;4988956;28;98504;-79
2023/08/22 12:46:21;;;;;;;7.75;2.65;;;;;;;;;;4990713;28;98890;-79
2023/08/22 12:48:47;;;;;;;7.68;2.72;;;;;;;;;;4989144;28;98581;-79
2023/08/22 12:51:13;;;;;;;7.85;2.00;;;;;;;;;;5001142;28;99539;-78
2023/08/22 12:53:40;;;;;;;17.17;2.38;;;;;;;;;;4989463;28;99480;-79
2023/08/22 12:56:06;;;;;;;5.72;1.90;;;;;;;;;;4987603;28;99235;-78
2023/08/22 12:58:34;;;;;;;4.28;1.67;;;;;;;;;;4990612;28;98858;-79
2023/08/22 13:01:00;;;;;;;4.15;1.80;;;;;;;;;;4987788;28;99476;-79
2023/08/22 13:03:27;;;;;;;8.05;2.58;;;;;;;;;;4991996;28;98523;-79
2023/08/22 13:05:54;;;;;;;5.20;2.08;;;;;;;;;;4992774;28;98437;-79
2023/08/22 13:08:20;;;;;;;9.90;2.15;;;;;;;;;;4995985;28;100198;-79
2023/08/22 13:10:47;;;;;;;5.18;1.77;;;;;;;;;;4991979;28;98761;-79
2023/08/22 13:13:13;;;;;;;4.85;1.67;;;;;;;;;;4996792;28;99081;-79
2023/08/22 13:15:39;;;;;;;6.65;1.20;;;;;;;;;;4992442;28;98540;-79
2023/08/22 13:18:06;;;;;;;6.30;2.03;;;;;;;;;;4992317;28;99023;-79
2023/08/22 13:20:33;;;;;;;6.25;1.80;;;;;;;;;;4996163;28;103780;-79
2023/08/22 13:22:59;;;;;;;9.82;1.58;;;;;;;;;;4992966;28;98610;-79
2023/08/22 13:25:26;;;;;;;10.93;1.42;;;;;;;;;;4997234;28;99531;-78
2023/08/22 13:27:52;;;;;;;5.18;1.60;;;;;;;;;;4994897;28;99538;-79
2023/08/22 13:30:19;;;;;;;7.93;2.00;;;;;;;;;;5000668;28;98629;-77
2023/08/22 13:32:45;;;;;;;4.35;1.48;;;;;;;;;;5000495;28;99295;-77
2023/08/22 13:35:15;;;;;;;6.22;1.90;;;;;;;;;;4997649;28;98519;-76
2023/08/22 13:37:42;;;;;;;14.43;2.22;;;;;;;;;;4993920;28;99188;-77
2023/08/22 13:40:10;;;;;;;8.07;2.25;;;;;;;;;;4995846;28;99514;-76
2023/08/22 13:42:39;;;;;;;3.63;1.58;;;;;;;;;;4994427;28;98654;-77
2023/08/22 13:45:06;;;;;;;6.73;1.77;;;;;;;;;;5001415;28;99189;-77
2023/08/22 13:47:33;;;;;;;5.20;1.27;;;;;;;;;;4995628;28;99488;-77
2023/08/22 13:49:59;;;;;;;7.28;1.65;;;;;;;;;;5003947;28;98471;-77
2023/08/22 13:52:25;;;;;;;5.28;1.42;;;;;;;;;;5001772;28;98568;-77
2023/08/22 13:54:52;;;;;;;9.65;1.45;;;;;;;;;;5002604;28;99485;-77
2023/08/22 13:57:18;;;;;;;5.90;1.55;;;;;;;;;;4990137;28;98620;-77
2023/08/22 13:59:46;;;;;;;4.68;1.50;;;;;;;;;;4992470;28;100510;-78
2023/08/22 14:02:12;;;;;;;5.03;1.25;;;;;;;;;;4992544;28;99175;-77
2023/08/22 14:04:39;;;;;;;5.55;1.30;;;;;;;;;;5002197;28;100790;-77
2023/08/22 14:07:06;;;;;;;5.63;1.50;;;;;;;;;;5003374;28;99542;-77
2023/08/22 14:09:33;;;;;;;11.25;1.88;;;;;;;;;;5000956;28;99699;-77
2023/08/22 14:11:59;;;;;;;6.07;1.42;;;;;;;;;;5004480;28;101350;-77
2023/08/22 14:14:25;;;;;;;5.07;1.42;;;;;;;;;;4991092;28;99647;-77
2023/08/22 14:16:52;;;;;;;8.10;2.00;;;;;;;;;;4996462;28;98655;-77
2023/08/22 14:19:18;;;;;;;6.55;1.60;;;;;;;;;;4995778;28;99869;-77
2023/08/22 14:21:45;;;;;;;4.63;1.50;;;;;;;;;;4999369;28;99397;-78
2023/08/22 14:24:15;;;;;;;6.03;1.23;;;;;;;;;;4995489;28;99459;-77
2023/08/22 14:26:41;;;;;;;7.63;1.10;;;;;;;;;;4994616;28;99039;-77
2023/08/22 14:29:08;;;;;;;4.68;1.42;;;;;;;;;;5003588;28;98855;-77
2023/08/22 14:31:34;;;;;;;8.45;1.35;;;;;;;;;;4997304;28;99655;-77
2023/08/22 14:34:01;;;;;;;5.57;1.27;;;;;;;;;;5005418;28;100233;-77
2023/08/22 14:36:27;;;;;;;5.80;1.08;;;;;;;;;;4996119;28;98618;-77
2023/08/22 14:38:54;;;;;;;3.78;0.95;;;;;;;;;;5007576;28;100206;-77